createdAt,value
2019-03-04T00:01:39.712Z,99.90
2019-03-04T00:04:07.465Z,99.90
2019-03-04T00:06:34.499Z,99.90
2019-03-04T00:09:01.173Z,99.90
2019-03-04T00:11:31.014Z,99.90
2019-03-04T00:13:59.474Z,99.90
2019-03-04T00:16:26.141Z,99.90
2019-03-04T00:18:52.828Z,99.90
2019-03-04T00:21:19.471Z,99.90
2019-03-04T00:23:46.277Z,99.90
2019-03-04T00:26:12.857Z,99.90
2019-03-04T00:28:39.723Z,99.90
2019-03-04T00:31:06.108Z,99.90
2019-03-04T00:33:33.479Z,99.90
2019-03-04T00:35:59.930Z,99.90
2019-03-04T00:38:26.675Z,99.90
2019-03-04T00:40:53.337Z,99.90
2019-03-04T00:43:19.953Z,99.90
2019-03-04T00:45:47.881Z,99.90
2019-03-04T00:48:14.707Z,99.90
2019-03-04T00:50:45.903Z,99.90
2019-03-04T00:53:14.629Z,99.90
2019-03-04T00:55:42.378Z,99.90
2019-03-04T00:58:08.686Z,99.90
2019-03-04T01:00:35.164Z,99.90
2019-03-04T01:03:08.140Z,99.90
2019-03-04T01:05:34.428Z,99.90
2019-03-04T01:08:01.300Z,99.90
2019-03-04T01:10:30.178Z,99.90
2019-03-04T01:12:59.958Z,99.90
2019-03-04T01:15:26.657Z,99.90
2019-03-04T01:17:54.386Z,99.90
2019-03-04T01:20:21.020Z,99.90
2019-03-04T01:22:47.700Z,99.90
2019-03-04T01:25:18.289Z,99.90
2019-03-04T01:27:45.941Z,99.90
2019-03-04T01:30:16.614Z,99.90
2019-03-04T01:32:43.224Z,99.90
2019-03-04T01:35:11.081Z,99.90
2019-03-04T01:37:38.366Z,99.90
2019-03-04T01:40:14.298Z,99.90
2019-03-04T01:42:40.977Z,99.90
2019-03-04T01:45:09.937Z,99.90
2019-03-04T01:47:36.585Z,99.90
2019-03-04T01:50:04.509Z,99.90
2019-03-04T01:52:30.903Z,99.90
2019-03-04T01:54:57.776Z,99.90
2019-03-04T01:57:24.156Z,99.90
2019-03-04T01:59:50.689Z,99.90
2019-03-04T02:02:19.161Z,99.90
2019-03-04T02:04:46.571Z,99.90
2019-03-04T02:07:13.245Z,99.90
2019-03-04T02:09:39.673Z,99.90
2019-03-04T02:12:06.073Z,99.90
2019-03-04T02:14:32.802Z,99.90
2019-03-04T02:17:04.255Z,99.90
2019-03-04T02:19:30.874Z,99.90
2019-03-04T02:21:57.520Z,99.90
2019-03-04T02:24:25.440Z,99.90
2019-03-04T02:26:53.247Z,99.90
2019-03-04T02:29:19.901Z,99.90
2019-03-04T02:31:46.372Z,99.90
2019-03-04T02:34:13.229Z,99.90
2019-03-04T02:36:45.406Z,99.90
2019-03-04T02:39:11.801Z,99.90
2019-03-04T02:41:38.709Z,99.90
2019-03-04T02:44:09.437Z,99.90
2019-03-04T02:46:36.058Z,99.90
2019-03-04T02:49:02.391Z,99.90
2019-03-04T02:51:30.688Z,99.90
2019-03-04T02:53:59.456Z,99.90
2019-03-04T02:56:26.115Z,99.90
2019-03-04T02:58:52.839Z,99.90
2019-03-04T03:01:19.630Z,99.90
2019-03-04T03:03:46.187Z,99.90
2019-03-04T03:06:14.647Z,99.90
2019-03-04T03:08:41.009Z,99.90
2019-03-04T03:11:08.123Z,99.90
2019-03-04T03:13:35.834Z,99.90
2019-03-04T03:16:02.534Z,99.90
2019-03-04T03:18:28.968Z,99.90
2019-03-04T03:20:57.682Z,99.90
2019-03-04T03:23:25.443Z,99.90
2019-03-04T03:25:51.802Z,99.90
2019-03-04T03:28:18.693Z,99.90
2019-03-04T03:30:45.552Z,99.90
2019-03-04T03:33:13.035Z,99.90
2019-03-04T03:35:40.533Z,99.90
2019-03-04T03:38:06.957Z,99.90
2019-03-04T03:40:33.594Z,99.90
2019-03-04T03:43:00.371Z,99.90
2019-03-04T03:45:27.127Z,99.90
2019-03-04T03:47:55.842Z,99.90
2019-03-04T03:50:22.586Z,99.90
2019-03-04T03:52:50.061Z,99.90
2019-03-04T03:55:16.793Z,99.90
2019-03-04T03:57:44.241Z,99.90
2019-03-04T04:00:21.351Z,99.90
2019-03-04T04:02:49.190Z,99.90
2019-03-04T04:05:15.745Z,99.90
2019-03-04T04:07:43.717Z,99.90
2019-03-04T04:10:11.780Z,99.90
2019-03-04T04:12:38.195Z,99.90
2019-03-04T04:15:13.471Z,99.90
2019-03-04T04:17:41.155Z,99.90
2019-03-04T04:20:08.781Z,99.90
2019-03-04T04:22:35.577Z,99.90
2019-03-04T04:25:05.819Z,99.90
2019-03-04T04:27:33.690Z,99.90
2019-03-04T04:30:00.866Z,99.90
2019-03-04T04:32:27.550Z,99.90
2019-03-04T04:34:54.382Z,99.90
2019-03-04T04:37:21.032Z,99.90
2019-03-04T04:39:47.666Z,99.90
2019-03-04T04:42:14.333Z,99.90
2019-03-04T04:44:46.496Z,99.90
2019-03-04T04:47:13.065Z,99.90
2019-03-04T04:49:39.707Z,99.90
2019-03-04T04:52:07.106Z,99.90
2019-03-04T04:54:35.914Z,99.90
2019-03-04T04:57:02.211Z,99.90
2019-03-04T04:59:28.889Z,99.90
2019-03-04T05:01:56.629Z,99.90
2019-03-04T05:04:23.002Z,99.90
2019-03-04T05:06:49.675Z,99.90
2019-03-04T05:09:16.429Z,99.90
2019-03-04T05:11:43.833Z,99.90
2019-03-04T05:14:11.493Z,99.90
2019-03-04T05:16:37.918Z,99.90
2019-03-04T05:19:05.686Z,99.90
2019-03-04T05:21:32.450Z,99.90
2019-03-04T05:23:59.027Z,99.90
2019-03-04T05:26:25.470Z,99.90
2019-03-04T05:28:52.121Z,99.90
2019-03-04T05:31:18.606Z,99.90
2019-03-04T05:33:45.300Z,99.90
2019-03-04T05:36:12.847Z,99.90
2019-03-04T05:38:41.357Z,99.90
2019-03-04T05:41:08.266Z,99.90
2019-03-04T05:43:35.651Z,99.90
2019-03-04T05:46:03.416Z,99.90
2019-03-04T05:48:29.841Z,99.90
2019-03-04T05:50:56.340Z,99.90
2019-03-04T05:53:23.009Z,99.90
2019-03-04T05:55:49.439Z,99.90
2019-03-04T05:58:15.898Z,99.90
2019-03-04T06:01:12.734Z,99.90
2019-03-04T06:03:42.647Z,99.90
2019-03-04T06:06:11.234Z,99.90
2019-03-04T06:08:37.609Z,99.90
2019-03-04T06:11:04.511Z,99.90
2019-03-04T06:13:32.011Z,99.90
2019-03-04T06:15:58.382Z,99.90
2019-03-04T06:18:25.990Z,99.90
2019-03-04T06:20:52.705Z,96.50
2019-03-04T06:23:19.610Z,94.50
2019-03-04T06:25:46.045Z,92.20
2019-03-04T06:28:13.497Z,92.10
2019-03-04T06:30:39.922Z,90.40
2019-03-04T06:33:06.665Z,88.00
2019-03-04T06:35:33.392Z,85.00
2019-03-04T06:38:03.993Z,82.60
2019-03-04T06:40:30.979Z,81.80
2019-03-04T06:43:00.985Z,80.60
2019-03-04T06:45:28.505Z,79.40
2019-03-04T06:47:54.860Z,78.20
2019-03-04T06:50:50.257Z,78.10
2019-03-04T06:53:36.187Z,78.30
2019-03-04T06:56:20.802Z,78.00
2019-03-04T06:59:06.722Z,77.50
2019-03-04T07:01:39.971Z,77.90
2019-03-04T07:04:10.374Z,77.50
2019-03-04T07:06:40.806Z,77.20
2019-03-04T07:09:07.743Z,77.80
2019-03-04T07:11:36.291Z,78.00
2019-03-04T07:14:10.595Z,78.80
2019-03-04T07:16:36.958Z,78.90
2019-03-04T07:19:03.882Z,79.10
2019-03-04T07:21:33.355Z,79.00
2019-03-04T07:24:00.498Z,79.40
2019-03-04T07:26:30.152Z,78.40
2019-03-04T07:28:56.622Z,78.90
2019-03-04T07:31:23.289Z,78.10
2019-03-04T07:33:49.575Z,79.00
2019-03-04T07:36:17.589Z,77.80
2019-03-04T07:38:52.950Z,78.80
2019-03-04T07:41:20.366Z,76.60
2019-03-04T07:43:50.669Z,71.40
2019-03-04T07:46:18.994Z,67.60
2019-03-04T07:48:45.500Z,64.80
2019-03-04T07:51:16.504Z,62.40
2019-03-04T07:53:46.633Z,61.30
2019-03-04T07:56:14.697Z,62.40
2019-03-04T07:58:42.343Z,59.50
2019-03-04T08:01:09.324Z,59.80
2019-03-04T08:03:37.219Z,60.10
2019-03-04T08:06:05.812Z,59.40
2019-03-04T08:08:34.393Z,60.10
2019-03-04T08:11:21.710Z,59.80
2019-03-04T08:13:52.263Z,61.70
2019-03-04T08:16:19.967Z,61.00
2019-03-04T08:18:48.824Z,60.80
2019-03-04T08:21:16.536Z,61.60
2019-03-04T08:23:43.280Z,61.10
2019-03-04T08:26:18.802Z,61.60
2019-03-04T08:28:47.497Z,63.40
2019-03-04T08:31:16.254Z,64.30
2019-03-04T08:33:43.945Z,65.10
2019-03-04T08:36:10.791Z,65.00
2019-03-04T08:38:38.474Z,66.40
2019-03-04T08:41:06.142Z,66.50
2019-03-04T08:43:35.052Z,67.80
2019-03-04T08:46:23.798Z,68.30
2019-03-04T08:48:55.321Z,68.80
2019-03-04T08:51:22.431Z,70.20
2019-03-04T08:53:50.010Z,71.20
2019-03-04T08:56:17.532Z,73.70
2019-03-04T08:58:44.283Z,74.90
2019-03-04T09:01:10.862Z,76.70
2019-03-04T09:03:37.322Z,78.60
2019-03-04T09:06:04.375Z,83.70
2019-03-04T09:08:32.136Z,89.80
2019-03-04T09:11:07.318Z,90.60
2019-03-04T09:13:42.644Z,92.80
2019-03-04T09:16:10.370Z,99.30
2019-03-04T09:18:41.170Z,99.90
2019-03-04T09:21:12.542Z,99.90
2019-03-04T09:23:39.053Z,99.90
2019-03-04T09:26:09.602Z,99.90
2019-03-04T09:28:36.260Z,99.90
2019-03-04T09:31:04.026Z,99.90
2019-03-04T09:33:34.452Z,99.90
2019-03-04T09:36:01.280Z,99.90
2019-03-04T09:38:35.878Z,99.90
2019-03-04T09:41:03.751Z,99.90
2019-03-04T09:43:30.348Z,99.90
2019-03-04T09:45:56.906Z,99.90
2019-03-04T09:48:24.385Z,99.90
2019-03-04T09:50:56.311Z,99.90
2019-03-04T09:53:22.713Z,99.90
2019-03-04T09:55:49.228Z,99.90
2019-03-04T09:58:16.135Z,99.90
2019-03-04T10:01:01.404Z,99.90
2019-03-04T10:03:40.871Z,99.90
2019-03-04T10:06:27.161Z,99.90
2019-03-04T10:09:20.194Z,99.90
2019-03-04T10:12:07.742Z,99.90
2019-03-04T10:15:11.264Z,99.90
2019-03-04T10:18:11.833Z,99.90
2019-03-04T10:20:54.344Z,99.90
2019-03-04T10:23:31.615Z,99.90
2019-03-04T10:26:05.202Z,99.90
2019-03-04T10:28:41.855Z,99.90
2019-03-04T10:31:33.927Z,99.90
2019-03-04T10:34:22.305Z,99.90
2019-03-04T10:37:05.661Z,99.90
2019-03-04T10:39:59.766Z,99.90
2019-03-04T10:42:48.016Z,99.90
2019-03-04T10:45:25.324Z,99.90
2019-03-04T10:47:51.727Z,99.90
2019-03-04T10:50:18.779Z,99.90
2019-03-04T10:52:45.383Z,99.90
2019-03-04T10:55:12.229Z,99.90
2019-03-04T10:57:40.284Z,99.90
2019-03-04T11:00:14.738Z,99.90
2019-03-04T11:02:47.903Z,99.90
2019-03-04T11:05:14.976Z,99.10
2019-03-04T11:07:41.781Z,99.90
2019-03-04T11:10:13.262Z,99.50
2019-03-04T11:12:41.279Z,99.90
2019-03-04T11:15:23.829Z,99.90
2019-03-04T11:17:50.581Z,99.90
2019-03-04T11:20:19.796Z,99.90
2019-03-04T11:22:46.517Z,99.90
2019-03-04T11:25:14.217Z,99.90
2019-03-04T11:27:41.623Z,99.90
2019-03-04T11:30:21.851Z,99.90
2019-03-04T11:32:48.423Z,99.90
2019-03-04T11:35:15.355Z,99.90
2019-03-04T11:37:43.388Z,99.90
2019-03-04T11:40:20.694Z,99.90
2019-03-04T11:42:54.772Z,99.90
2019-03-04T11:45:21.173Z,99.90
2019-03-04T11:47:47.698Z,99.90
2019-03-04T11:50:15.264Z,99.90
2019-03-04T11:52:41.910Z,99.90
2019-03-04T11:55:12.324Z,99.90
2019-03-04T11:57:41.133Z,99.90
2019-03-04T12:00:18.352Z,99.90
2019-03-04T12:02:45.876Z,99.90
2019-03-04T12:05:12.960Z,99.90
2019-03-04T12:07:39.807Z,99.90
2019-03-04T12:10:09.914Z,99.90
2019-03-04T12:12:36.718Z,99.90
2019-03-04T12:15:07.132Z,98.90
2019-03-04T12:17:33.920Z,97.00
2019-03-04T12:20:00.606Z,96.40
2019-03-04T12:22:27.586Z,96.30
2019-03-04T12:24:53.986Z,96.90
2019-03-04T12:27:20.672Z,95.60
2019-03-04T12:29:47.382Z,97.80
2019-03-04T12:32:16.077Z,96.80
2019-03-04T12:34:42.805Z,95.30
2019-03-04T12:37:09.495Z,94.40
2019-03-04T12:39:36.228Z,93.30
2019-03-04T12:42:03.241Z,93.10
2019-03-04T12:44:30.051Z,92.80
2019-03-04T12:46:56.621Z,91.90
2019-03-04T12:49:23.154Z,92.70
2019-03-04T12:51:49.673Z,93.10
2019-03-04T12:54:16.395Z,92.70
2019-03-04T12:56:43.088Z,94.00
2019-03-04T12:59:09.805Z,94.30
2019-03-04T13:01:36.311Z,94.00
2019-03-04T13:04:03.333Z,94.90
2019-03-04T13:06:30.339Z,95.50
2019-03-04T13:09:00.123Z,94.50
2019-03-04T13:11:26.639Z,95.00
2019-03-04T13:13:53.062Z,94.00
2019-03-04T13:16:20.557Z,95.40
2019-03-04T13:18:47.219Z,95.40
2019-03-04T13:21:13.949Z,96.20
2019-03-04T13:23:41.949Z,96.00
2019-03-04T13:26:08.794Z,94.80
2019-03-04T13:28:35.410Z,94.00
2019-03-04T13:31:02.222Z,94.10
2019-03-04T13:33:29.262Z,92.70
2019-03-04T13:35:55.982Z,91.90
2019-03-04T13:38:22.770Z,92.50
2019-03-04T13:40:49.596Z,90.00
2019-03-04T13:43:17.567Z,90.10
2019-03-04T13:45:45.247Z,90.90
2019-03-04T13:48:11.991Z,88.50
2019-03-04T13:50:39.210Z,85.10
2019-03-04T13:53:07.111Z,85.10
2019-03-04T13:55:33.987Z,87.80
2019-03-04T13:58:01.173Z,81.00
2019-03-04T14:00:36.430Z,81.20
2019-03-04T14:03:03.620Z,80.00
2019-03-04T14:05:30.212Z,78.10
2019-03-04T14:07:57.150Z,76.70
2019-03-04T14:10:36.430Z,76.20
2019-03-04T14:13:03.536Z,75.40
2019-03-04T14:15:49.834Z,75.10
2019-03-04T14:18:16.437Z,69.60
2019-03-04T14:20:43.139Z,67.80
2019-03-04T14:23:09.876Z,66.40
2019-03-04T14:25:36.788Z,64.00
2019-03-04T14:28:03.475Z,64.80
2019-03-04T14:30:31.008Z,66.00
2019-03-04T14:33:00.450Z,64.60
2019-03-04T14:35:27.933Z,62.90
2019-03-04T14:37:54.553Z,62.50
2019-03-04T14:40:21.793Z,63.00
2019-03-04T14:42:48.087Z,59.60
2019-03-04T14:45:18.834Z,62.50
2019-03-04T14:47:46.788Z,59.70
2019-03-04T14:50:15.160Z,58.40
2019-03-04T14:52:42.168Z,58.90
2019-03-04T14:55:13.840Z,57.90
2019-03-04T14:57:41.513Z,58.80
2019-03-04T15:00:39.709Z,58.90
2019-03-04T15:03:07.466Z,58.80
2019-03-04T15:05:34.936Z,58.30
2019-03-04T15:08:01.963Z,58.40
2019-03-04T15:10:28.522Z,59.70
2019-03-04T15:12:57.286Z,59.20
2019-03-04T15:15:28.352Z,58.70
2019-03-04T15:17:54.858Z,59.20
2019-03-04T15:20:24.074Z,58.50
2019-03-04T15:22:50.755Z,58.20
2019-03-04T15:25:26.341Z,56.30
2019-03-04T15:28:07.786Z,57.50
2019-03-04T15:30:34.960Z,57.00
2019-03-04T15:33:01.646Z,57.70
2019-03-04T15:35:28.142Z,57.10
2019-03-04T15:37:55.406Z,56.80
2019-03-04T15:40:22.430Z,57.90
2019-03-04T15:42:49.133Z,57.80
2019-03-04T15:45:15.890Z,55.80
2019-03-04T15:47:42.426Z,56.10
2019-03-04T15:50:10.075Z,56.20
2019-03-04T15:52:36.964Z,56.50
2019-03-04T15:55:06.307Z,56.90
2019-03-04T15:57:35.170Z,56.90
2019-03-04T16:00:04.399Z,57.90
2019-03-04T16:02:31.580Z,57.90
2019-03-04T16:04:58.042Z,58.30
2019-03-04T16:07:24.569Z,58.60
2019-03-04T16:09:51.367Z,60.20
2019-03-04T16:12:24.997Z,61.10
2019-03-04T16:14:51.654Z,61.40
2019-03-04T16:17:18.545Z,63.10
2019-03-04T16:19:45.316Z,68.60
2019-03-04T16:22:12.076Z,86.20
2019-03-04T16:24:38.384Z,99.90
2019-03-04T16:27:09.793Z,99.90
2019-03-04T16:29:37.291Z,99.90
2019-03-04T16:32:04.329Z,99.90
2019-03-04T16:34:34.180Z,99.90
2019-03-04T16:37:05.143Z,99.90
2019-03-04T16:39:31.677Z,99.90
2019-03-04T16:41:58.203Z,99.90
2019-03-04T16:44:26.389Z,99.90
2019-03-04T16:46:54.116Z,99.90
2019-03-04T16:49:23.170Z,99.90
2019-03-04T16:51:50.564Z,99.90
2019-03-04T16:54:17.261Z,99.90
2019-03-04T16:56:44.036Z,99.90
2019-03-04T16:59:10.477Z,99.90
2019-03-04T17:01:37.266Z,99.90
2019-03-04T17:04:07.912Z,99.90
2019-03-04T17:06:34.738Z,99.90
2019-03-04T17:09:01.220Z,99.90
2019-03-04T17:11:29.971Z,99.90
2019-03-04T17:13:59.579Z,99.90
2019-03-04T17:16:25.992Z,99.90
2019-03-04T17:18:52.767Z,99.90
2019-03-04T17:21:19.454Z,99.90
2019-03-04T17:23:47.171Z,99.90
2019-03-04T17:26:13.775Z,99.90
2019-03-04T17:28:40.159Z,99.90
2019-03-04T17:31:08.038Z,99.90
2019-03-04T17:33:34.549Z,99.90
2019-03-04T17:36:01.060Z,99.90
2019-03-04T17:38:27.564Z,99.90
2019-03-04T17:40:54.130Z,99.90
2019-03-04T17:43:20.802Z,99.90
2019-03-04T17:45:47.714Z,99.90
2019-03-04T17:48:14.318Z,99.90
2019-03-04T17:50:46.146Z,99.90
2019-03-04T17:53:14.162Z,99.90
2019-03-04T17:55:46.982Z,99.90
2019-03-04T17:58:13.787Z,99.90
2019-03-04T18:00:48.104Z,99.90
2019-03-04T18:03:15.068Z,99.90
2019-03-04T18:05:50.072Z,99.90
2019-03-04T18:08:19.029Z,99.90
2019-03-04T18:10:47.920Z,99.90
2019-03-04T18:13:16.695Z,99.90
2019-03-04T18:15:49.441Z,99.90
2019-03-04T18:18:16.758Z,99.90
2019-03-04T18:20:46.007Z,99.90
2019-03-04T18:23:13.044Z,99.90
2019-03-04T18:26:03.803Z,99.90
2019-03-04T18:28:40.280Z,99.90
2019-03-04T18:31:25.564Z,99.90
2019-03-04T18:34:22.129Z,99.90
2019-03-04T18:37:28.000Z,99.90
2019-03-04T18:40:21.519Z,99.90
2019-03-04T18:42:58.201Z,99.90
2019-03-04T18:45:28.991Z,99.90
2019-03-04T18:48:10.731Z,99.90
2019-03-04T18:50:37.522Z,99.90
2019-03-04T18:53:04.059Z,99.90
2019-03-04T18:55:31.028Z,99.90
2019-03-04T18:57:57.546Z,99.90
2019-03-04T19:00:25.077Z,99.90
2019-03-04T19:02:51.933Z,99.90
2019-03-04T19:05:18.895Z,99.90
2019-03-04T19:07:45.501Z,99.90
2019-03-04T19:10:13.657Z,99.90
2019-03-04T19:12:40.172Z,99.90
2019-03-04T19:15:09.188Z,99.90
2019-03-04T19:17:35.797Z,99.90
2019-03-04T19:20:10.974Z,99.90
2019-03-04T19:22:39.752Z,99.90
2019-03-04T19:25:07.026Z,99.90
2019-03-04T19:27:33.876Z,99.90
2019-03-04T19:30:00.357Z,99.90
2019-03-04T19:32:27.092Z,99.90
2019-03-04T19:34:53.573Z,99.90
2019-03-04T19:37:20.408Z,99.90
2019-03-04T19:39:47.449Z,99.90
2019-03-04T19:42:14.288Z,99.90
2019-03-04T19:44:40.811Z,99.90
2019-03-04T19:47:08.499Z,99.90
2019-03-04T19:49:36.234Z,99.90
2019-03-04T19:52:03.128Z,99.90
2019-03-04T19:54:29.871Z,99.90
2019-03-04T19:56:56.620Z,99.90
2019-03-04T19:59:23.083Z,99.90
2019-03-04T20:01:49.780Z,99.90
2019-03-04T20:04:16.788Z,99.90
2019-03-04T20:06:45.411Z,99.90
2019-03-04T20:09:12.265Z,99.90
2019-03-04T20:11:40.274Z,99.90
2019-03-04T20:14:07.088Z,99.90
2019-03-04T20:16:33.607Z,99.90
2019-03-04T20:19:00.248Z,99.90
2019-03-04T20:21:26.635Z,99.90
2019-03-04T20:23:53.637Z,99.90
2019-03-04T20:26:20.516Z,99.90
2019-03-04T20:28:47.486Z,99.90
2019-03-04T20:31:14.383Z,99.90
2019-03-04T20:33:40.787Z,99.90
2019-03-04T20:36:07.319Z,99.90
2019-03-04T20:38:37.637Z,99.90
2019-03-04T20:41:04.040Z,99.90
2019-03-04T20:43:31.044Z,99.90
2019-03-04T20:45:57.595Z,99.90
2019-03-04T20:48:24.454Z,99.90
2019-03-04T20:50:50.915Z,99.90
2019-03-04T20:53:19.395Z,99.90
2019-03-04T20:55:46.155Z,99.90
2019-03-04T20:58:14.170Z,99.90
2019-03-04T21:00:41.162Z,99.90
2019-03-04T21:03:08.225Z,99.90
2019-03-04T21:05:38.172Z,99.90
2019-03-04T21:08:06.173Z,99.90
2019-03-04T21:10:33.196Z,99.90
2019-03-04T21:13:02.073Z,99.90
2019-03-04T21:15:30.281Z,99.90
2019-03-04T21:17:56.908Z,99.90
2019-03-04T21:20:24.520Z,99.90
2019-03-04T21:22:53.598Z,99.90
2019-03-04T21:25:37.320Z,99.90
2019-03-04T21:28:41.403Z,99.90
2019-03-04T21:31:33.829Z,99.90
2019-03-04T21:34:06.945Z,99.90
2019-03-04T21:36:57.344Z,99.90
2019-03-04T21:39:34.771Z,99.90
2019-03-04T21:42:14.559Z,99.90
2019-03-04T21:45:00.281Z,99.90
2019-03-04T21:47:44.379Z,99.90
2019-03-04T21:50:32.613Z,99.90
2019-03-04T21:53:03.117Z,99.90
2019-03-04T21:55:39.821Z,99.90
2019-03-04T21:58:06.780Z,99.90
2019-03-04T22:00:35.635Z,99.90
2019-03-04T22:03:08.165Z,99.90
2019-03-04T22:05:36.233Z,99.90
2019-03-04T22:08:03.295Z,99.90
2019-03-04T22:10:30.783Z,99.90
2019-03-04T22:12:57.511Z,99.90
2019-03-04T22:15:25.265Z,99.90
2019-03-04T22:17:56.186Z,99.90
2019-03-04T22:20:23.340Z,99.90
2019-03-04T22:22:50.499Z,99.90
2019-03-04T22:25:30.340Z,99.90
2019-03-04T22:27:57.224Z,99.90
2019-03-04T22:30:24.036Z,99.90
2019-03-04T22:32:50.848Z,99.90
2019-03-04T22:35:17.703Z,99.90
2019-03-04T22:37:45.672Z,99.90
2019-03-04T22:40:18.292Z,99.90
2019-03-04T22:42:45.386Z,99.90
2019-03-04T22:45:14.554Z,99.90
2019-03-04T22:47:41.330Z,99.90
2019-03-04T22:50:13.285Z,99.90
2019-03-04T22:52:40.265Z,99.90
2019-03-04T22:55:10.003Z,99.90
2019-03-04T22:57:36.426Z,99.90
2019-03-04T23:00:17.735Z,99.90
2019-03-04T23:02:54.678Z,99.90
2019-03-04T23:05:15.291Z,99.90
2019-03-04T23:07:42.854Z,99.90
2019-03-04T23:10:10.413Z,99.90
2019-03-04T23:12:40.584Z,99.90
2019-03-04T23:15:17.093Z,99.90
2019-03-04T23:17:43.513Z,99.90
2019-03-04T23:20:10.440Z,99.90
2019-03-04T23:22:39.991Z,99.90
2019-03-04T23:25:11.231Z,99.90
2019-03-04T23:27:37.912Z,99.90
2019-03-04T23:30:12.252Z,99.90
2019-03-04T23:32:38.718Z,99.90
2019-03-04T23:35:06.219Z,99.90
2019-03-04T23:37:32.947Z,99.90
2019-03-04T23:39:59.643Z,99.90
2019-03-04T23:42:26.343Z,99.90
2019-03-04T23:44:53.164Z,99.90
2019-03-04T23:47:21.654Z,99.90
2019-03-04T23:50:11.859Z,99.90
2019-03-04T23:52:38.621Z,99.90
2019-03-04T23:55:07.007Z,99.90
2019-03-04T23:57:33.739Z,99.90
